createdAt,value
2024-04-14T00:00:43.100Z,45.46
2024-04-14T00:03:09.898Z,44.92
2024-04-14T00:05:36.775Z,45.23
2024-04-14T00:08:03.944Z,45.89
2024-04-14T00:10:30.686Z,46.00
2024-04-14T00:13:00.031Z,45.52
2024-04-14T00:15:26.795Z,46.13
2024-04-14T00:17:53.676Z,46.82
2024-04-14T00:20:20.854Z,46.88
2024-04-14T00:22:48.368Z,46.34
2024-04-14T00:25:15.606Z,46.34
2024-04-14T00:27:42.821Z,46.15
2024-04-14T00:30:12.801Z,46.45
2024-04-14T00:32:39.933Z,47.06
2024-04-14T00:35:07.046Z,46.58
2024-04-14T00:37:33.848Z,47.23
2024-04-14T00:40:00.661Z,46.55
2024-04-14T00:42:27.490Z,47.04
2024-04-14T00:44:54.264Z,46.85
2024-04-14T00:47:23.800Z,46.96
2024-04-14T00:49:50.898Z,47.81
2024-04-14T00:52:17.831Z,47.96
2024-04-14T00:54:45.803Z,47.90
2024-04-14T00:57:13.209Z,47.79
2024-04-14T00:59:40.321Z,47.35
2024-04-14T01:02:07.688Z,46.95
2024-04-14T01:04:37.372Z,47.70
2024-04-14T01:07:04.617Z,47.10
2024-04-14T01:09:31.490Z,46.93
2024-04-14T01:11:58.246Z,46.38
2024-04-14T01:14:24.968Z,46.58
2024-04-14T01:16:51.778Z,46.87
2024-04-14T01:19:18.539Z,46.24
2024-04-14T01:21:47.899Z,46.58
2024-04-14T01:24:14.594Z,46.89
2024-04-14T01:26:43.955Z,46.47
2024-04-14T01:29:10.918Z,46.40
2024-04-14T01:31:38.117Z,46.97
2024-04-14T01:34:05.302Z,46.77
2024-04-14T01:36:32.525Z,46.12
2024-04-14T01:39:01.304Z,47.02
2024-04-14T01:41:28.485Z,47.28
2024-04-14T01:43:58.457Z,47.70
2024-04-14T01:46:25.569Z,48.09
2024-04-14T01:48:52.748Z,47.73
2024-04-14T01:51:20.045Z,48.21
2024-04-14T01:53:47.098Z,49.38
2024-04-14T01:56:14.256Z,49.41
2024-04-14T01:58:41.544Z,49.21
2024-04-14T02:01:11.909Z,48.13
2024-04-14T02:03:39.103Z,48.39
2024-04-14T02:06:06.857Z,48.48
2024-04-14T02:08:33.562Z,49.23
2024-04-14T02:11:01.453Z,48.37
2024-04-14T02:13:28.827Z,48.51
2024-04-14T02:15:55.540Z,48.93
2024-04-14T02:18:25.190Z,48.78
2024-04-14T02:20:51.927Z,48.91
2024-04-14T02:23:18.631Z,48.87
2024-04-14T02:25:54.400Z,48.89
2024-04-14T02:28:21.167Z,48.37
2024-04-14T02:30:47.989Z,48.53
2024-04-14T02:33:14.810Z,49.04
2024-04-14T02:35:53.170Z,49.28
2024-04-14T02:38:19.990Z,49.24
2024-04-14T02:40:55.628Z,49.41
2024-04-14T02:43:22.333Z,49.10
2024-04-14T02:45:49.156Z,49.60
2024-04-14T02:48:15.971Z,49.88
2024-04-14T02:50:45.614Z,50.63
2024-04-14T02:53:12.590Z,49.54
2024-04-14T02:55:39.955Z,50.23
2024-04-14T02:58:08.607Z,49.93
2024-04-14T03:00:35.539Z,50.22
2024-04-14T03:03:02.807Z,50.13
2024-04-14T03:05:29.684Z,50.53
2024-04-14T03:07:59.462Z,49.69
2024-04-14T03:10:26.610Z,49.60
2024-04-14T03:12:53.843Z,49.90
2024-04-14T03:15:21.019Z,49.60
2024-04-14T03:17:48.195Z,49.65
2024-04-14T03:20:15.688Z,50.23
2024-04-14T03:22:42.779Z,50.09
2024-04-14T03:25:12.496Z,49.82
2024-04-14T03:27:39.872Z,50.18
2024-04-14T03:30:08.573Z,50.18
2024-04-14T03:32:35.867Z,50.17
2024-04-14T03:35:03.221Z,49.53
2024-04-14T03:37:30.346Z,50.32
2024-04-14T03:39:57.543Z,50.42
2024-04-14T03:42:27.363Z,50.27
2024-04-14T03:44:54.466Z,50.84
2024-04-14T03:47:21.577Z,50.42
2024-04-14T03:49:48.683Z,50.87
2024-04-14T03:52:15.742Z,50.74
2024-04-14T03:54:42.811Z,51.00
2024-04-14T03:57:09.870Z,50.67
2024-04-14T03:59:39.516Z,50.06
2024-04-14T04:02:06.705Z,51.19
2024-04-14T04:04:33.935Z,50.43
2024-04-14T04:07:01.011Z,50.71
2024-04-14T04:09:28.163Z,50.89
2024-04-14T04:11:55.226Z,51.27
2024-04-14T04:14:22.285Z,51.00
2024-04-14T04:16:53.147Z,51.09
2024-04-14T04:19:26.135Z,51.26
2024-04-14T04:21:55.078Z,51.19
2024-04-14T04:24:25.200Z,50.25
2024-04-14T04:26:52.882Z,51.15
2024-04-14T04:29:20.028Z,52.48
2024-04-14T04:31:47.062Z,52.02
2024-04-14T04:34:16.842Z,51.14
2024-04-14T04:36:45.502Z,51.13
2024-04-14T04:39:12.640Z,51.41
2024-04-14T04:41:39.688Z,51.37
2024-04-14T04:44:06.729Z,52.34
2024-04-14T04:46:33.821Z,51.89
2024-04-14T04:49:00.941Z,51.40
2024-04-14T04:51:31.557Z,51.96
2024-04-14T04:53:58.642Z,51.94
2024-04-14T04:56:25.741Z,52.11
2024-04-14T04:58:52.889Z,52.20
2024-04-14T05:01:20.078Z,52.34
2024-04-14T05:03:47.295Z,52.56
2024-04-14T05:06:14.455Z,52.57
2024-04-14T05:08:44.157Z,52.08
2024-04-14T05:11:11.255Z,51.68
2024-04-14T05:13:38.356Z,53.04
2024-04-14T05:16:06.307Z,53.21
2024-04-14T05:18:33.639Z,52.62
2024-04-14T05:21:01.016Z,52.11
2024-04-14T05:23:28.107Z,52.92
2024-04-14T05:26:00.823Z,53.91
2024-04-14T05:28:27.991Z,53.17
2024-04-14T05:30:55.218Z,53.78
2024-04-14T05:33:22.361Z,53.66
2024-04-14T05:35:53.861Z,53.20
2024-04-14T05:38:21.013Z,53.33
2024-04-14T05:40:48.218Z,52.35
2024-04-14T05:43:18.059Z,52.38
2024-04-14T05:45:45.847Z,52.47
2024-04-14T05:48:13.309Z,52.20
2024-04-14T05:50:40.483Z,52.39
2024-04-14T05:53:07.535Z,52.29
2024-04-14T05:55:34.750Z,52.06
2024-04-14T05:58:02.131Z,52.66
2024-04-14T06:00:32.089Z,52.01
2024-04-14T06:02:59.175Z,51.54
2024-04-14T06:05:26.319Z,51.55
2024-04-14T06:07:53.525Z,50.95
2024-04-14T06:10:20.716Z,51.22
2024-04-14T06:12:47.813Z,50.62
2024-04-14T06:15:14.963Z,50.20
2024-04-14T06:17:44.956Z,49.96
2024-04-14T06:20:12.023Z,49.63
2024-04-14T06:22:39.055Z,47.12
2024-04-14T06:25:06.287Z,47.15
2024-04-14T06:27:33.431Z,46.84
2024-04-14T06:30:00.562Z,46.29
2024-04-14T06:32:28.057Z,45.59
2024-04-14T06:34:57.912Z,45.69
2024-04-14T06:37:25.026Z,45.12
2024-04-14T06:39:52.181Z,45.72
2024-04-14T06:42:19.286Z,46.33
2024-04-14T06:44:46.559Z,45.53
2024-04-14T06:47:13.645Z,45.03
2024-04-14T06:49:40.713Z,44.55
2024-04-14T06:52:10.405Z,44.78
2024-04-14T06:54:37.612Z,43.55
2024-04-14T06:57:05.395Z,43.09
2024-04-14T06:59:32.450Z,42.99
2024-04-14T07:01:59.603Z,42.34
2024-04-14T07:04:27.108Z,42.77
2024-04-14T07:06:54.310Z,42.16
2024-04-14T07:09:24.101Z,41.27
2024-04-14T07:11:51.312Z,41.54
2024-04-14T07:14:18.418Z,41.14
2024-04-14T07:16:45.475Z,41.43
2024-04-14T07:19:12.747Z,40.22
2024-04-14T07:21:40.063Z,40.82
2024-04-14T07:24:07.499Z,40.85
2024-04-14T07:26:37.230Z,40.51
2024-04-14T07:29:04.285Z,40.04
2024-04-14T07:31:31.480Z,39.42
2024-04-14T07:34:00.203Z,39.20
2024-04-14T07:36:27.554Z,39.32
2024-04-14T07:38:54.781Z,38.32
2024-04-14T07:41:22.057Z,38.66
2024-04-14T07:43:51.840Z,39.10
2024-04-14T07:46:19.524Z,37.99
2024-04-14T07:48:46.603Z,37.21
2024-04-14T07:51:13.691Z,37.36
2024-04-14T07:53:41.670Z,36.76
2024-04-14T07:56:08.711Z,37.44
2024-04-14T07:58:35.735Z,37.53
2024-04-14T08:01:05.552Z,36.12
2024-04-14T08:03:42.647Z,35.59
2024-04-14T08:06:17.736Z,35.99
2024-04-14T08:08:44.774Z,36.42
2024-04-14T08:11:11.881Z,36.15
2024-04-14T08:13:38.938Z,35.92
2024-04-14T08:16:09.060Z,36.11
2024-04-14T08:18:36.395Z,35.97
2024-04-14T08:21:03.921Z,35.62
2024-04-14T08:23:31.188Z,36.26
2024-04-14T08:26:01.375Z,36.31
2024-04-14T08:28:28.431Z,35.65
2024-04-14T08:30:55.654Z,35.59
2024-04-14T08:33:25.582Z,35.26
2024-04-14T08:35:52.910Z,35.54
2024-04-14T08:38:19.956Z,35.79
2024-04-14T08:40:53.178Z,35.74
2024-04-14T08:43:21.201Z,35.77
2024-04-14T08:45:48.649Z,35.46
2024-04-14T08:48:18.927Z,35.88
2024-04-14T08:50:48.789Z,35.66
2024-04-14T08:53:19.387Z,35.99
2024-04-14T08:55:49.158Z,35.92
2024-04-14T08:58:17.196Z,35.72
2024-04-14T09:00:45.256Z,35.42
2024-04-14T09:03:12.631Z,35.67
2024-04-14T09:05:41.984Z,35.17
2024-04-14T09:08:11.744Z,33.75
2024-04-14T09:10:38.997Z,33.58
2024-04-14T09:13:08.961Z,32.61
2024-04-14T09:15:40.185Z,32.96
2024-04-14T09:18:07.562Z,32.81
2024-04-14T09:20:34.300Z,33.28
2024-04-14T09:23:01.051Z,33.24
2024-04-14T09:25:30.557Z,33.38
2024-04-14T09:28:02.424Z,34.89
2024-04-14T09:30:29.704Z,34.98
2024-04-14T09:32:58.782Z,34.25
2024-04-14T09:35:26.605Z,34.75
2024-04-14T09:37:53.834Z,34.46
2024-04-14T09:40:20.866Z,33.14
2024-04-14T09:42:52.470Z,31.37
2024-04-14T09:45:19.655Z,31.59
2024-04-14T09:47:48.116Z,31.72
2024-04-14T09:50:14.885Z,32.10
2024-04-14T09:52:45.033Z,31.83
2024-04-14T09:55:11.870Z,32.22
2024-04-14T09:57:38.737Z,32.13
2024-04-14T10:00:10.075Z,31.83
2024-04-14T10:02:41.721Z,31.60
2024-04-14T10:05:09.904Z,32.29
2024-04-14T10:07:37.387Z,32.01
2024-04-14T10:10:07.777Z,32.29
2024-04-14T10:12:35.041Z,32.15
2024-04-14T10:15:07.314Z,32.21
2024-04-14T10:17:38.598Z,31.84
2024-04-14T10:20:14.038Z,31.36
2024-04-14T10:22:42.779Z,31.35
2024-04-14T10:25:18.399Z,31.31
2024-04-14T10:27:45.545Z,31.30
2024-04-14T10:30:20.260Z,31.91
2024-04-14T10:33:01.162Z,32.51
2024-04-14T10:35:27.978Z,32.30
2024-04-14T10:37:55.758Z,32.38
2024-04-14T10:40:23.301Z,32.30
2024-04-14T10:42:50.304Z,32.47
2024-04-14T10:45:25.526Z,32.25
2024-04-14T10:47:55.904Z,32.45
2024-04-14T10:50:22.620Z,31.82
2024-04-14T10:52:49.371Z,32.42
2024-04-14T10:55:16.096Z,32.57
2024-04-14T10:57:42.798Z,32.50
2024-04-14T11:00:10.944Z,32.51
2024-04-14T11:02:38.680Z,32.46
2024-04-14T11:05:09.233Z,32.58
2024-04-14T11:07:36.972Z,33.05
2024-04-14T11:10:09.825Z,32.86
2024-04-14T11:12:37.309Z,33.47
2024-04-14T11:15:06.919Z,33.07
2024-04-14T11:17:35.561Z,32.44
2024-04-14T11:20:02.846Z,32.78
2024-04-14T11:22:33.000Z,32.33
2024-04-14T11:25:00.261Z,32.33
2024-04-14T11:27:29.374Z,33.18
2024-04-14T11:29:57.932Z,32.96
2024-04-14T11:32:25.339Z,32.31
2024-04-14T11:34:52.591Z,32.52
2024-04-14T11:37:19.759Z,31.70
2024-04-14T11:39:49.641Z,32.51
2024-04-14T11:42:16.827Z,32.96
2024-04-14T11:44:44.086Z,33.44
2024-04-14T11:47:11.205Z,33.31
2024-04-14T11:49:38.284Z,33.68
2024-04-14T11:52:08.046Z,32.65
2024-04-14T11:54:38.990Z,33.92
2024-04-14T11:57:08.935Z,33.84
2024-04-14T11:59:36.143Z,33.70
2024-04-14T12:02:04.352Z,33.58
2024-04-14T12:04:31.471Z,33.88
2024-04-14T12:06:58.593Z,33.60
2024-04-14T12:09:25.837Z,34.20
2024-04-14T12:11:53.053Z,33.81
2024-04-14T12:14:23.012Z,33.39
2024-04-14T12:16:50.321Z,33.29
2024-04-14T12:19:17.482Z,33.68
2024-04-14T12:21:44.713Z,33.38
2024-04-14T12:24:11.881Z,33.43
2024-04-14T12:26:39.135Z,33.12
2024-04-14T12:29:06.232Z,33.00
2024-04-14T12:31:36.891Z,32.80
2024-04-14T12:34:04.827Z,32.61
2024-04-14T12:36:32.025Z,32.52
2024-04-14T12:38:58.947Z,32.82
2024-04-14T12:41:25.937Z,32.53
2024-04-14T12:43:53.359Z,32.49
2024-04-14T12:46:20.838Z,32.77
2024-04-14T12:48:50.553Z,32.63
2024-04-14T12:51:17.316Z,32.31
2024-04-14T12:53:44.079Z,32.26
2024-04-14T12:56:10.964Z,32.09
2024-04-14T12:58:37.824Z,32.48
2024-04-14T13:01:05.204Z,32.49
2024-04-14T13:03:32.032Z,31.20
2024-04-14T13:06:02.442Z,31.37
2024-04-14T13:08:29.666Z,30.82
2024-04-14T13:10:56.838Z,30.49
2024-04-14T13:13:23.626Z,30.72
2024-04-14T13:15:50.431Z,30.11
2024-04-14T13:18:17.312Z,29.90
2024-04-14T13:20:44.073Z,30.09
2024-04-14T13:23:13.520Z,30.11
2024-04-14T13:25:40.204Z,29.18
2024-04-14T13:28:07.048Z,29.13
2024-04-14T13:30:33.934Z,29.87
2024-04-14T13:33:01.106Z,28.76
2024-04-14T13:35:28.279Z,28.21
2024-04-14T13:37:55.660Z,28.66
2024-04-14T13:40:25.311Z,27.85
2024-04-14T13:42:52.470Z,27.70
2024-04-14T13:45:19.609Z,28.12
2024-04-14T13:47:46.793Z,27.15
2024-04-14T13:50:14.157Z,27.10
2024-04-14T13:52:41.344Z,26.51
2024-04-14T13:55:08.728Z,25.95
2024-04-14T13:57:38.958Z,25.98
2024-04-14T14:00:07.269Z,27.15
2024-04-14T14:02:34.412Z,26.39
2024-04-14T14:05:01.579Z,26.36
2024-04-14T14:07:30.044Z,26.13
2024-04-14T14:09:56.791Z,25.58
2024-04-14T14:12:23.507Z,25.59
2024-04-14T14:14:52.883Z,24.92
2024-04-14T14:17:19.650Z,25.98
2024-04-14T14:19:46.503Z,25.21
2024-04-14T14:22:13.281Z,25.39
2024-04-14T14:24:41.125Z,25.04
2024-04-14T14:27:07.829Z,25.07
2024-04-14T14:29:34.587Z,24.34
2024-04-14T14:32:04.723Z,23.93
2024-04-14T14:34:31.583Z,23.70
2024-04-14T14:36:58.451Z,23.18
2024-04-14T14:39:25.121Z,23.03
2024-04-14T14:41:51.893Z,22.82
2024-04-14T14:44:18.568Z,22.40
2024-04-14T14:46:45.315Z,22.17
2024-04-14T14:49:14.716Z,21.96
2024-04-14T14:51:42.430Z,22.13
2024-04-14T14:54:12.262Z,21.75
2024-04-14T14:56:39.496Z,21.34
2024-04-14T14:59:06.249Z,21.28
2024-04-14T15:01:33.012Z,21.42
2024-04-14T15:03:59.894Z,21.04
2024-04-14T15:06:29.230Z,20.82
2024-04-14T15:08:56.379Z,20.41
2024-04-14T15:11:23.562Z,20.47
2024-04-14T15:13:51.006Z,20.74
2024-04-14T15:16:18.557Z,20.20
2024-04-14T15:18:45.676Z,19.83
2024-04-14T15:21:12.778Z,20.79
2024-04-14T15:23:42.474Z,20.08
2024-04-14T15:26:09.582Z,20.39
2024-04-14T15:28:36.791Z,20.08
2024-04-14T15:31:04.384Z,19.83
2024-04-14T15:33:31.510Z,19.73
2024-04-14T15:35:58.612Z,19.43
2024-04-14T15:38:25.756Z,19.50
2024-04-14T15:40:56.370Z,19.79
2024-04-14T15:43:23.515Z,20.31
2024-04-14T15:45:50.717Z,20.69
2024-04-14T15:48:17.896Z,21.04
2024-04-14T15:50:45.008Z,21.17
2024-04-14T15:53:12.068Z,21.50
2024-04-14T15:55:39.401Z,21.16
2024-04-14T15:58:09.136Z,22.14
2024-04-14T16:00:36.367Z,22.40
2024-04-14T16:03:04.623Z,22.01
2024-04-14T16:05:31.791Z,22.69
2024-04-14T16:07:58.897Z,22.90
2024-04-14T16:10:29.136Z,23.77
2024-04-14T16:12:56.275Z,24.07
2024-04-14T16:15:26.006Z,23.90
2024-04-14T16:17:53.116Z,23.67
2024-04-14T16:20:20.253Z,23.88
2024-04-14T16:22:47.319Z,23.85
2024-04-14T16:25:16.605Z,23.50
2024-04-14T16:27:45.021Z,23.26
2024-04-14T16:30:12.149Z,22.57
2024-04-14T16:32:41.907Z,22.60
2024-04-14T16:35:09.006Z,23.20
2024-04-14T16:37:36.143Z,23.02
2024-04-14T16:40:03.359Z,23.01
2024-04-14T16:42:30.439Z,23.24
2024-04-14T16:44:57.483Z,22.73
2024-04-14T16:47:24.614Z,23.64
2024-04-14T16:49:54.539Z,23.25
2024-04-14T16:52:21.656Z,23.60
2024-04-14T16:54:48.745Z,23.47
2024-04-14T16:57:15.828Z,24.01
2024-04-14T16:59:42.865Z,23.90
2024-04-14T17:02:09.967Z,23.97
2024-04-14T17:04:37.042Z,24.74
2024-04-14T17:07:07.648Z,24.73
2024-04-14T17:09:34.869Z,24.66
2024-04-14T17:12:01.941Z,24.53
2024-04-14T17:14:29.133Z,24.47
2024-04-14T17:16:56.278Z,24.42
2024-04-14T17:19:23.408Z,24.90
2024-04-14T17:21:50.514Z,24.35
2024-04-14T17:24:20.181Z,24.58
2024-04-14T17:26:47.253Z,24.99
2024-04-14T17:29:14.298Z,25.14
2024-04-14T17:31:41.360Z,25.25
2024-04-14T17:34:08.479Z,25.11
2024-04-14T17:36:35.589Z,25.34
2024-04-14T17:39:02.689Z,25.78
2024-04-14T17:41:32.375Z,25.52
2024-04-14T17:43:59.435Z,26.67
2024-04-14T17:46:26.513Z,26.79
2024-04-14T17:48:53.587Z,27.46
2024-04-14T17:51:20.665Z,28.04
2024-04-14T17:53:47.888Z,27.86
2024-04-14T17:56:14.977Z,29.18
2024-04-14T17:58:46.810Z,29.39
2024-04-14T18:01:14.165Z,29.27
2024-04-14T18:03:41.281Z,30.23
2024-04-14T18:06:08.420Z,28.27
2024-04-14T18:08:35.474Z,30.08
2024-04-14T18:11:02.617Z,28.96
2024-04-14T18:13:29.668Z,30.36
2024-04-14T18:15:59.382Z,30.18
2024-04-14T18:18:26.474Z,29.81
2024-04-14T18:20:53.540Z,30.37
2024-04-14T18:23:20.607Z,31.82
2024-04-14T18:25:47.660Z,31.57
2024-04-14T18:28:14.725Z,31.80
2024-04-14T18:30:41.861Z,32.24
2024-04-14T18:33:11.846Z,33.30
2024-04-14T18:35:38.975Z,33.78
2024-04-14T18:38:06.125Z,32.32
2024-04-14T18:40:33.218Z,33.30
2024-04-14T18:43:00.444Z,33.00
2024-04-14T18:45:27.590Z,33.04
2024-04-14T18:47:54.824Z,33.33
2024-04-14T18:50:24.548Z,34.78
2024-04-14T18:52:51.654Z,34.27
2024-04-14T18:55:18.725Z,34.03
2024-04-14T18:57:48.005Z,34.76
2024-04-14T19:00:15.528Z,34.22
2024-04-14T19:02:42.685Z,34.91
2024-04-14T19:05:09.804Z,34.75
2024-04-14T19:07:39.612Z,34.90
2024-04-14T19:10:07.580Z,34.45
2024-04-14T19:12:34.851Z,35.00
2024-04-14T19:15:02.066Z,35.29
2024-04-14T19:17:29.328Z,35.14
2024-04-14T19:19:56.424Z,34.72
2024-04-14T19:22:23.529Z,34.94
2024-04-14T19:24:53.530Z,35.26
2024-04-14T19:27:20.776Z,34.80
2024-04-14T19:29:47.897Z,34.91
2024-04-14T19:32:14.986Z,35.46
2024-04-14T19:34:41.831Z,35.78
2024-04-14T19:37:08.692Z,35.91
2024-04-14T19:39:35.511Z,36.17
2024-04-14T19:42:05.470Z,36.29
2024-04-14T19:44:32.240Z,36.55
2024-04-14T19:46:58.968Z,36.34
2024-04-14T19:49:25.685Z,36.69
2024-04-14T19:51:52.430Z,37.19
2024-04-14T19:54:19.316Z,37.06
2024-04-14T19:56:46.312Z,36.69
2024-04-14T19:59:15.887Z,37.07
2024-04-14T20:01:42.971Z,37.34
2024-04-14T20:04:09.842Z,37.69
2024-04-14T20:06:36.721Z,38.08
2024-04-14T20:09:03.772Z,37.96
2024-04-14T20:11:30.575Z,38.01
2024-04-14T20:13:57.352Z,38.14
2024-04-14T20:16:26.688Z,38.65
2024-04-14T20:18:53.542Z,38.55
2024-04-14T20:21:20.543Z,38.92
2024-04-14T20:23:47.295Z,38.92
2024-04-14T20:26:14.240Z,38.67
2024-04-14T20:28:41.350Z,39.11
2024-04-14T20:31:11.321Z,38.83
2024-04-14T20:33:42.470Z,38.36
2024-04-14T20:36:10.093Z,38.81
2024-04-14T20:38:37.912Z,38.36
2024-04-14T20:41:05.188Z,38.84
2024-04-14T20:43:32.667Z,39.13
2024-04-14T20:45:59.854Z,39.32
2024-04-14T20:48:27.077Z,39.42
2024-04-14T20:50:56.557Z,39.24
2024-04-14T20:53:23.559Z,39.27
2024-04-14T20:55:50.245Z,39.65
2024-04-14T20:58:17.122Z,40.35
2024-04-14T21:00:44.046Z,40.87
2024-04-14T21:03:11.035Z,40.44
2024-04-14T21:05:38.001Z,40.02
2024-04-14T21:08:07.689Z,40.31
2024-04-14T21:10:34.408Z,39.95
2024-04-14T21:13:01.201Z,40.38
2024-04-14T21:15:31.298Z,40.77
2024-04-14T21:17:58.192Z,40.22
2024-04-14T21:20:25.039Z,40.02
2024-04-14T21:22:51.852Z,41.17
2024-04-14T21:25:21.250Z,41.27
2024-04-14T21:27:48.241Z,40.36
2024-04-14T21:30:15.230Z,40.39
2024-04-14T21:32:42.247Z,40.87
2024-04-14T21:35:09.390Z,41.13
2024-04-14T21:37:36.230Z,41.70
2024-04-14T21:40:03.236Z,41.38
2024-04-14T21:42:33.070Z,41.13
2024-04-14T21:45:01.318Z,41.26
2024-04-14T21:47:28.675Z,41.34
2024-04-14T21:49:55.640Z,41.15
2024-04-14T21:52:22.700Z,41.79
2024-04-14T21:54:51.724Z,41.73
2024-04-14T21:57:18.913Z,41.72
2024-04-14T21:59:48.857Z,41.88
2024-04-14T22:02:16.341Z,41.99
2024-04-14T22:04:43.636Z,41.37
2024-04-14T22:07:10.904Z,42.18
2024-04-14T22:09:38.067Z,42.69
2024-04-14T22:12:05.803Z,42.83
2024-04-14T22:14:32.929Z,42.14
2024-04-14T22:17:02.494Z,42.17
2024-04-14T22:19:29.486Z,42.46
2024-04-14T22:21:56.622Z,42.06
2024-04-14T22:24:23.826Z,42.34
2024-04-14T22:26:50.763Z,41.85
2024-04-14T22:29:17.837Z,41.82
2024-04-14T22:31:44.833Z,42.20
2024-04-14T22:34:14.367Z,42.64
2024-04-14T22:36:41.390Z,41.66
2024-04-14T22:39:08.726Z,42.16
2024-04-14T22:41:36.289Z,42.21
2024-04-14T22:44:03.314Z,42.46
2024-04-14T22:46:30.745Z,42.67
2024-04-14T22:48:58.148Z,42.80
2024-04-14T22:51:28.147Z,43.24
2024-04-14T22:53:55.493Z,43.50
2024-04-14T22:56:22.920Z,45.25
2024-04-14T22:58:50.152Z,45.95
2024-04-14T23:01:20.275Z,47.98
2024-04-14T23:03:49.244Z,49.54
2024-04-14T23:06:16.552Z,49.50
2024-04-14T23:08:46.364Z,49.44
2024-04-14T23:11:13.519Z,50.28
2024-04-14T23:13:40.284Z,50.82
2024-04-14T23:16:07.190Z,51.95
2024-04-14T23:18:34.087Z,52.47
2024-04-14T23:21:01.195Z,51.58
2024-04-14T23:23:28.155Z,51.84
2024-04-14T23:25:57.958Z,51.69
2024-04-14T23:28:24.665Z,53.75
2024-04-14T23:30:51.539Z,53.97
2024-04-14T23:33:18.494Z,54.66
2024-04-14T23:35:45.385Z,54.21
2024-04-14T23:38:12.216Z,54.16
2024-04-14T23:40:38.903Z,54.27
2024-04-14T23:43:08.248Z,54.09
2024-04-14T23:45:35.004Z,53.95
2024-04-14T23:48:01.921Z,52.94
2024-04-14T23:50:28.827Z,52.20
2024-04-14T23:52:55.579Z,50.40
2024-04-14T23:55:22.611Z,53.86
2024-04-14T23:57:49.413Z,55.31
